sensor_id;sensor_type;location;lat;lon;timestamp;temperature;humidity
22813;DHT22;11573;51.334;3.244;2023-11-19T00:00:16;13.80;99.90
22813;DHT22;11573;51.334;3.244;2023-11-19T00:02:43;13.80;99.90
22813;DHT22;11573;51.334;3.244;2023-11-19T00:05:11;13.80;99.90
22813;DHT22;11573;51.334;3.244;2023-11-19T00:07:39;13.80;99.90
22813;DHT22;11573;51.334;3.244;2023-11-19T00:10:11;13.80;99.90
22813;DHT22;11573;51.334;3.244;2023-11-19T00:12:43;13.70;99.90
22813;DHT22;11573;51.334;3.244;2023-11-19T00:15:12;13.70;99.90
22813;DHT22;11573;51.334;3.244;2023-11-19T00:17:44;13.70;99.90
22813;DHT22;11573;51.334;3.244;2023-11-19T00:20:16;13.60;99.90
22813;DHT22;11573;51.334;3.244;2023-11-19T00:22:45;13.70;99.90
22813;DHT22;11573;51.334;3.244;2023-11-19T00:25:17;13.60;99.90
22813;DHT22;11573;51.334;3.244;2023-11-19T00:27:45;13.60;99.90
22813;DHT22;11573;51.334;3.244;2023-11-19T00:30:12;13.60;99.90
22813;DHT22;11573;51.334;3.244;2023-11-19T00:32:41;13.60;99.90
22813;DHT22;11573;51.334;3.244;2023-11-19T00:35:08;13.50;99.90
22813;DHT22;11573;51.334;3.244;2023-11-19T00:37:37;13.50;99.90
22813;DHT22;11573;51.334;3.244;2023-11-19T00:40:05;13.50;99.90
22813;DHT22;11573;51.334;3.244;2023-11-19T00:42:32;13.40;99.90
22813;DHT22;11573;51.334;3.244;2023-11-19T00:44:59;13.30;99.90
22813;DHT22;11573;51.334;3.244;2023-11-19T00:47:28;13.30;99.90
22813;DHT22;11573;51.334;3.244;2023-11-19T00:49:55;13.20;99.90
22813;DHT22;11573;51.334;3.244;2023-11-19T00:52:22;13.20;99.90
22813;DHT22;11573;51.334;3.244;2023-11-19T00:54:49;13.10;99.90
22813;DHT22;11573;51.334;3.244;2023-11-19T00:57:16;13.10;99.90
22813;DHT22;11573;51.334;3.244;2023-11-19T00:59:43;13.10;99.90
22813;DHT22;11573;51.334;3.244;2023-11-19T01:02:10;13.00;99.90
22813;DHT22;11573;51.334;3.244;2023-11-19T01:04:38;13.00;99.90
22813;DHT22;11573;51.334;3.244;2023-11-19T01:07:05;13.00;99.90
22813;DHT22;11573;51.334;3.244;2023-11-19T01:09:33;13.00;99.90
22813;DHT22;11573;51.334;3.244;2023-11-19T01:12:02;13.00;99.90
22813;DHT22;11573;51.334;3.244;2023-11-19T01:14:30;13.00;99.90
22813;DHT22;11573;51.334;3.244;2023-11-19T01:16:57;13.00;99.90
22813;DHT22;11573;51.334;3.244;2023-11-19T01:19:24;13.00;99.90
22813;DHT22;11573;51.334;3.244;2023-11-19T01:21:51;12.90;99.90
22813;DHT22;11573;51.334;3.244;2023-11-19T01:24:19;12.90;99.90
22813;DHT22;11573;51.334;3.244;2023-11-19T01:26:46;12.90;99.90
22813;DHT22;11573;51.334;3.244;2023-11-19T01:29:16;12.90;99.90
22813;DHT22;11573;51.334;3.244;2023-11-19T01:31:45;12.90;99.90
22813;DHT22;11573;51.334;3.244;2023-11-19T01:34:13;12.80;99.90
22813;DHT22;11573;51.334;3.244;2023-11-19T01:36:40;12.80;99.90
22813;DHT22;11573;51.334;3.244;2023-11-19T01:39:07;12.70;99.90
22813;DHT22;11573;51.334;3.244;2023-11-19T01:41:35;12.70;99.90
22813;DHT22;11573;51.334;3.244;2023-11-19T01:44:08;12.70;99.90
22813;DHT22;11573;51.334;3.244;2023-11-19T01:46:36;12.70;99.90
22813;DHT22;11573;51.334;3.244;2023-11-19T01:49:04;12.70;99.90
22813;DHT22;11573;51.334;3.244;2023-11-19T01:51:32;12.70;99.90
22813;DHT22;11573;51.334;3.244;2023-11-19T01:53:59;12.70;99.90
22813;DHT22;11573;51.334;3.244;2023-11-19T01:56:27;12.80;99.90
22813;DHT22;11573;51.334;3.244;2023-11-19T01:58:55;12.80;99.90
22813;DHT22;11573;51.334;3.244;2023-11-19T02:01:23;12.80;99.90
22813;DHT22;11573;51.334;3.244;2023-11-19T02:03:51;12.80;99.90
22813;DHT22;11573;51.334;3.244;2023-11-19T02:06:19;12.80;99.90
22813;DHT22;11573;51.334;3.244;2023-11-19T02:08:46;12.80;99.90
22813;DHT22;11573;51.334;3.244;2023-11-19T02:11:13;12.90;99.90
22813;DHT22;11573;51.334;3.244;2023-11-19T02:13:40;13.00;99.90
22813;DHT22;11573;51.334;3.244;2023-11-19T02:16:08;13.00;99.90
22813;DHT22;11573;51.334;3.244;2023-11-19T02:18:36;12.90;99.90
22813;DHT22;11573;51.334;3.244;2023-11-19T02:21:03;12.90;99.90
22813;DHT22;11573;51.334;3.244;2023-11-19T02:23:32;12.80;99.90
22813;DHT22;11573;51.334;3.244;2023-11-19T02:28:36;12.70;99.90
22813;DHT22;11573;51.334;3.244;2023-11-19T02:31:04;12.70;99.90
22813;DHT22;11573;51.334;3.244;2023-11-19T02:33:38;12.60;99.90
22813;DHT22;11573;51.334;3.244;2023-11-19T02:36:06;12.60;99.90
22813;DHT22;11573;51.334;3.244;2023-11-19T02:38:34;12.50;99.90
22813;DHT22;11573;51.334;3.244;2023-11-19T02:41:06;12.60;99.90
22813;DHT22;11573;51.334;3.244;2023-11-19T02:43:34;12.50;99.90
22813;DHT22;11573;51.334;3.244;2023-11-19T02:46:05;12.50;99.90
22813;DHT22;11573;51.334;3.244;2023-11-19T02:48:38;12.50;99.90
22813;DHT22;11573;51.334;3.244;2023-11-19T02:51:06;12.50;99.90
22813;DHT22;11573;51.334;3.244;2023-11-19T02:53:37;12.50;99.90
22813;DHT22;11573;51.334;3.244;2023-11-19T02:56:06;12.50;99.90
22813;DHT22;11573;51.334;3.244;2023-11-19T02:58:39;12.50;99.90
22813;DHT22;11573;51.334;3.244;2023-11-19T03:01:06;12.50;99.90
22813;DHT22;11573;51.334;3.244;2023-11-19T03:03:50;12.40;99.90
22813;DHT22;11573;51.334;3.244;2023-11-19T03:06:25;12.40;99.90
22813;DHT22;11573;51.334;3.244;2023-11-19T03:08:52;12.50;99.90
22813;DHT22;11573;51.334;3.244;2023-11-19T03:11:19;12.40;99.90
22813;DHT22;11573;51.334;3.244;2023-11-19T03:13:46;12.40;99.90
22813;DHT22;11573;51.334;3.244;2023-11-19T03:16:13;12.50;99.90
22813;DHT22;11573;51.334;3.244;2023-11-19T03:18:40;12.50;99.90
22813;DHT22;11573;51.334;3.244;2023-11-19T03:21:08;12.50;99.90
22813;DHT22;11573;51.334;3.244;2023-11-19T03:23:35;12.50;99.90
22813;DHT22;11573;51.334;3.244;2023-11-19T03:26:03;12.40;99.90
22813;DHT22;11573;51.334;3.244;2023-11-19T03:28:32;12.40;99.90
22813;DHT22;11573;51.334;3.244;2023-11-19T03:31:00;12.40;99.90
22813;DHT22;11573;51.334;3.244;2023-11-19T03:33:27;12.30;99.90
22813;DHT22;11573;51.334;3.244;2023-11-19T03:35:56;12.30;99.90
22813;DHT22;11573;51.334;3.244;2023-11-19T03:38:23;12.30;99.90
22813;DHT22;11573;51.334;3.244;2023-11-19T03:40:51;12.40;99.90
22813;DHT22;11573;51.334;3.244;2023-11-19T03:43:18;12.40;99.90
22813;DHT22;11573;51.334;3.244;2023-11-19T03:45:46;12.40;99.90
22813;DHT22;11573;51.334;3.244;2023-11-19T03:48:14;12.40;99.90
22813;DHT22;11573;51.334;3.244;2023-11-19T03:50:43;12.40;99.90
22813;DHT22;11573;51.334;3.244;2023-11-19T03:53:12;12.40;99.90
22813;DHT22;11573;51.334;3.244;2023-11-19T03:55:39;12.40;99.90
22813;DHT22;11573;51.334;3.244;2023-11-19T03:58:06;12.40;99.90
22813;DHT22;11573;51.334;3.244;2023-11-19T04:00:33;12.30;99.90
22813;DHT22;11573;51.334;3.244;2023-11-19T04:03:00;12.30;99.90
22813;DHT22;11573;51.334;3.244;2023-11-19T04:05:27;12.30;99.90
22813;DHT22;11573;51.334;3.244;2023-11-19T04:07:54;12.30;99.90
22813;DHT22;11573;51.334;3.244;2023-11-19T04:10:21;12.30;99.90
22813;DHT22;11573;51.334;3.244;2023-11-19T04:12:49;12.20;99.90
22813;DHT22;11573;51.334;3.244;2023-11-19T04:15:16;12.20;99.90
22813;DHT22;11573;51.334;3.244;2023-11-19T04:17:44;12.20;99.90
22813;DHT22;11573;51.334;3.244;2023-11-19T04:20:11;12.20;99.90
22813;DHT22;11573;51.334;3.244;2023-11-19T04:22:41;12.20;99.90
22813;DHT22;11573;51.334;3.244;2023-11-19T04:25:08;12.20;99.90
22813;DHT22;11573;51.334;3.244;2023-11-19T04:27:36;12.10;99.90
22813;DHT22;11573;51.334;3.244;2023-11-19T04:30:04;12.10;99.90
22813;DHT22;11573;51.334;3.244;2023-11-19T04:32:32;12.10;99.90
22813;DHT22;11573;51.334;3.244;2023-11-19T04:34:59;12.00;99.90
22813;DHT22;11573;51.334;3.244;2023-11-19T04:37:26;12.10;99.90
22813;DHT22;11573;51.334;3.244;2023-11-19T04:39:53;12.10;99.90
22813;DHT22;11573;51.334;3.244;2023-11-19T04:42:22;12.10;99.90
22813;DHT22;11573;51.334;3.244;2023-11-19T04:44:49;12.20;99.90
22813;DHT22;11573;51.334;3.244;2023-11-19T04:47:16;12.10;99.90
22813;DHT22;11573;51.334;3.244;2023-11-19T04:49:43;12.10;99.90
22813;DHT22;11573;51.334;3.244;2023-11-19T04:52:11;12.10;99.90
22813;DHT22;11573;51.334;3.244;2023-11-19T04:54:43;12.00;99.90
22813;DHT22;11573;51.334;3.244;2023-11-19T04:57:10;12.00;99.90
22813;DHT22;11573;51.334;3.244;2023-11-19T04:59:40;12.00;99.90
22813;DHT22;11573;51.334;3.244;2023-11-19T05:02:09;12.00;99.90
22813;DHT22;11573;51.334;3.244;2023-11-19T05:04:36;12.00;99.90
22813;DHT22;11573;51.334;3.244;2023-11-19T05:07:04;12.00;99.90
22813;DHT22;11573;51.334;3.244;2023-11-19T05:09:31;12.10;99.90
22813;DHT22;11573;51.334;3.244;2023-11-19T05:11:58;12.10;99.90
22813;DHT22;11573;51.334;3.244;2023-11-19T05:14:25;12.10;99.90
22813;DHT22;11573;51.334;3.244;2023-11-19T05:16:52;12.10;99.90
22813;DHT22;11573;51.334;3.244;2023-11-19T05:19:19;12.10;99.90
22813;DHT22;11573;51.334;3.244;2023-11-19T05:21:47;12.10;99.90
22813;DHT22;11573;51.334;3.244;2023-11-19T05:24:14;12.10;99.90
22813;DHT22;11573;51.334;3.244;2023-11-19T05:26:41;12.10;99.90
22813;DHT22;11573;51.334;3.244;2023-11-19T05:29:08;12.00;99.90
22813;DHT22;11573;51.334;3.244;2023-11-19T05:31:35;12.00;99.90
22813;DHT22;11573;51.334;3.244;2023-11-19T05:34:04;12.00;99.90
22813;DHT22;11573;51.334;3.244;2023-11-19T05:36:31;12.00;99.90
22813;DHT22;11573;51.334;3.244;2023-11-19T05:38:58;12.00;99.90
22813;DHT22;11573;51.334;3.244;2023-11-19T05:41:25;11.90;99.90
22813;DHT22;11573;51.334;3.244;2023-11-19T05:43:52;12.00;99.90
22813;DHT22;11573;51.334;3.244;2023-11-19T05:46:19;11.90;99.90
22813;DHT22;11573;51.334;3.244;2023-11-19T05:48:47;11.90;99.90
22813;DHT22;11573;51.334;3.244;2023-11-19T05:51:15;11.90;99.90
22813;DHT22;11573;51.334;3.244;2023-11-19T05:53:43;11.90;99.90
22813;DHT22;11573;51.334;3.244;2023-11-19T05:56:10;11.90;99.90
22813;DHT22;11573;51.334;3.244;2023-11-19T05:58:37;11.90;99.90
22813;DHT22;11573;51.334;3.244;2023-11-19T06:01:06;11.80;99.90
22813;DHT22;11573;51.334;3.244;2023-11-19T06:03:35;11.80;99.90
22813;DHT22;11573;51.334;3.244;2023-11-19T06:06:04;11.70;99.90
22813;DHT22;11573;51.334;3.244;2023-11-19T06:08:32;11.70;99.90
22813;DHT22;11573;51.334;3.244;2023-11-19T06:10:59;11.60;99.90
22813;DHT22;11573;51.334;3.244;2023-11-19T06:13:28;11.70;99.90
22813;DHT22;11573;51.334;3.244;2023-11-19T06:15:57;11.60;99.90
22813;DHT22;11573;51.334;3.244;2023-11-19T06:18:24;11.60;99.90
22813;DHT22;11573;51.334;3.244;2023-11-19T06:20:52;11.60;99.90
22813;DHT22;11573;51.334;3.244;2023-11-19T06:23:19;11.60;99.90
22813;DHT22;11573;51.334;3.244;2023-11-19T06:25:46;11.50;99.90
22813;DHT22;11573;51.334;3.244;2023-11-19T06:28:13;11.50;99.90
22813;DHT22;11573;51.334;3.244;2023-11-19T06:30:40;11.50;99.90
22813;DHT22;11573;51.334;3.244;2023-11-19T06:33:08;11.50;99.90
22813;DHT22;11573;51.334;3.244;2023-11-19T06:35:35;11.50;99.90
22813;DHT22;11573;51.334;3.244;2023-11-19T06:38:03;11.40;99.90
22813;DHT22;11573;51.334;3.244;2023-11-19T06:40:34;11.50;99.90
22813;DHT22;11573;51.334;3.244;2023-11-19T06:43:04;11.40;99.90
22813;DHT22;11573;51.334;3.244;2023-11-19T06:45:32;11.40;99.90
22813;DHT22;11573;51.334;3.244;2023-11-19T06:48:01;11.40;99.90
22813;DHT22;11573;51.334;3.244;2023-11-19T06:50:31;11.40;99.90
22813;DHT22;11573;51.334;3.244;2023-11-19T06:52:58;11.40;99.90
22813;DHT22;11573;51.334;3.244;2023-11-19T06:55:25;11.40;99.90
22813;DHT22;11573;51.334;3.244;2023-11-19T06:57:52;11.40;99.90
22813;DHT22;11573;51.334;3.244;2023-11-19T07:00:19;11.50;99.90
22813;DHT22;11573;51.334;3.244;2023-11-19T07:02:47;11.50;99.90
22813;DHT22;11573;51.334;3.244;2023-11-19T07:05:14;11.50;99.90
22813;DHT22;11573;51.334;3.244;2023-11-19T07:07:41;11.50;99.90
22813;DHT22;11573;51.334;3.244;2023-11-19T07:10:08;11.50;99.90
22813;DHT22;11573;51.334;3.244;2023-11-19T07:12:36;11.50;99.90
22813;DHT22;11573;51.334;3.244;2023-11-19T07:15:04;11.50;99.90
22813;DHT22;11573;51.334;3.244;2023-11-19T07:17:35;11.50;99.90
22813;DHT22;11573;51.334;3.244;2023-11-19T07:20:03;11.50;99.90
22813;DHT22;11573;51.334;3.244;2023-11-19T07:22:31;11.60;99.90
22813;DHT22;11573;51.334;3.244;2023-11-19T07:24:58;11.60;99.90
22813;DHT22;11573;51.334;3.244;2023-11-19T07:27:25;11.60;99.90
22813;DHT22;11573;51.334;3.244;2023-11-19T07:29:52;11.60;99.90
22813;DHT22;11573;51.334;3.244;2023-11-19T07:32:19;11.60;99.90
22813;DHT22;11573;51.334;3.244;2023-11-19T07:34:46;11.60;99.90
22813;DHT22;11573;51.334;3.244;2023-11-19T07:37:13;11.60;99.90
22813;DHT22;11573;51.334;3.244;2023-11-19T07:39:40;11.60;99.90
22813;DHT22;11573;51.334;3.244;2023-11-19T07:42:08;11.60;99.90
22813;DHT22;11573;51.334;3.244;2023-11-19T07:44:36;11.60;99.90
22813;DHT22;11573;51.334;3.244;2023-11-19T07:47:04;11.60;99.90
22813;DHT22;11573;51.334;3.244;2023-11-19T07:49:31;11.60;99.90
22813;DHT22;11573;51.334;3.244;2023-11-19T07:51:58;11.70;99.90
22813;DHT22;11573;51.334;3.244;2023-11-19T07:54:25;11.70;99.90
22813;DHT22;11573;51.334;3.244;2023-11-19T07:56:52;11.70;99.90
22813;DHT22;11573;51.334;3.244;2023-11-19T07:59:20;11.70;99.90
22813;DHT22;11573;51.334;3.244;2023-11-19T08:01:47;11.80;99.90
22813;DHT22;11573;51.334;3.244;2023-11-19T08:04:14;11.80;99.90
22813;DHT22;11573;51.334;3.244;2023-11-19T08:06:42;11.80;99.90
22813;DHT22;11573;51.334;3.244;2023-11-19T08:09:09;11.90;99.90
22813;DHT22;11573;51.334;3.244;2023-11-19T08:11:41;12.00;99.90
22813;DHT22;11573;51.334;3.244;2023-11-19T08:14:08;12.20;99.90
22813;DHT22;11573;51.334;3.244;2023-11-19T08:16:36;12.30;99.90
22813;DHT22;11573;51.334;3.244;2023-11-19T08:19:04;12.30;99.90
22813;DHT22;11573;51.334;3.244;2023-11-19T08:21:31;12.40;99.90
22813;DHT22;11573;51.334;3.244;2023-11-19T08:23:59;12.40;99.90
22813;DHT22;11573;51.334;3.244;2023-11-19T08:26:26;12.50;99.90
22813;DHT22;11573;51.334;3.244;2023-11-19T08:28:54;12.60;99.90
22813;DHT22;11573;51.334;3.244;2023-11-19T08:31:21;12.60;99.90
22813;DHT22;11573;51.334;3.244;2023-11-19T08:33:48;12.60;99.90
22813;DHT22;11573;51.334;3.244;2023-11-19T08:36:16;12.60;99.90
22813;DHT22;11573;51.334;3.244;2023-11-19T08:38:43;12.60;99.90
22813;DHT22;11573;51.334;3.244;2023-11-19T08:41:11;12.80;99.90
22813;DHT22;11573;51.334;3.244;2023-11-19T08:43:38;12.80;99.90
22813;DHT22;11573;51.334;3.244;2023-11-19T08:46:12;12.80;99.90
22813;DHT22;11573;51.334;3.244;2023-11-19T08:48:40;12.70;99.90
22813;DHT22;11573;51.334;3.244;2023-11-19T08:51:06;12.80;99.90
22813;DHT22;11573;51.334;3.244;2023-11-19T08:53:34;12.80;99.90
22813;DHT22;11573;51.334;3.244;2023-11-19T08:56:01;12.80;99.90
22813;DHT22;11573;51.334;3.244;2023-11-19T08:58:30;12.80;99.90
22813;DHT22;11573;51.334;3.244;2023-11-19T09:00:57;12.80;99.90
22813;DHT22;11573;51.334;3.244;2023-11-19T09:03:25;12.80;99.90
22813;DHT22;11573;51.334;3.244;2023-11-19T09:05:57;12.90;99.90
22813;DHT22;11573;51.334;3.244;2023-11-19T09:08:24;12.90;99.90
22813;DHT22;11573;51.334;3.244;2023-11-19T09:10:51;12.90;99.90
22813;DHT22;11573;51.334;3.244;2023-11-19T09:13:18;12.80;99.90
22813;DHT22;11573;51.334;3.244;2023-11-19T09:15:45;12.80;99.90
22813;DHT22;11573;51.334;3.244;2023-11-19T09:18:12;12.80;99.90
22813;DHT22;11573;51.334;3.244;2023-11-19T09:20:39;12.90;99.90
22813;DHT22;11573;51.334;3.244;2023-11-19T09:23:06;13.00;99.90
22813;DHT22;11573;51.334;3.244;2023-11-19T09:25:35;13.20;99.90
22813;DHT22;11573;51.334;3.244;2023-11-19T09:28:05;13.30;99.90
22813;DHT22;11573;51.334;3.244;2023-11-19T09:30:32;13.30;99.90
22813;DHT22;11573;51.334;3.244;2023-11-19T09:33:01;13.30;99.90
22813;DHT22;11573;51.334;3.244;2023-11-19T09:35:28;13.20;99.90
22813;DHT22;11573;51.334;3.244;2023-11-19T09:37:55;13.10;99.90
22813;DHT22;11573;51.334;3.244;2023-11-19T09:40:23;12.90;99.90
22813;DHT22;11573;51.334;3.244;2023-11-19T09:42:50;12.70;99.90
22813;DHT22;11573;51.334;3.244;2023-11-19T09:45:17;12.60;99.90
22813;DHT22;11573;51.334;3.244;2023-11-19T09:47:47;12.60;99.90
22813;DHT22;11573;51.334;3.244;2023-11-19T09:50:18;12.50;99.90
22813;DHT22;11573;51.334;3.244;2023-11-19T09:52:47;12.50;99.90
22813;DHT22;11573;51.334;3.244;2023-11-19T09:55:14;12.50;99.90
22813;DHT22;11573;51.334;3.244;2023-11-19T09:57:41;12.60;99.90
22813;DHT22;11573;51.334;3.244;2023-11-19T10:00:11;12.70;99.90
22813;DHT22;11573;51.334;3.244;2023-11-19T10:02:43;12.70;99.90
22813;DHT22;11573;51.334;3.244;2023-11-19T10:05:14;12.80;99.90
22813;DHT22;11573;51.334;3.244;2023-11-19T10:07:42;12.80;99.90
22813;DHT22;11573;51.334;3.244;2023-11-19T10:10:10;12.90;99.90
22813;DHT22;11573;51.334;3.244;2023-11-19T10:12:40;13.10;99.90
22813;DHT22;11573;51.334;3.244;2023-11-19T10:15:24;13.20;99.90
22813;DHT22;11573;51.334;3.244;2023-11-19T10:17:57;13.30;99.90
22813;DHT22;11573;51.334;3.244;2023-11-19T10:20:25;13.30;99.90
22813;DHT22;11573;51.334;3.244;2023-11-19T10:22:53;13.50;99.90
22813;DHT22;11573;51.334;3.244;2023-11-19T10:25:22;13.80;99.90
22813;DHT22;11573;51.334;3.244;2023-11-19T10:27:51;14.20;99.90
22813;DHT22;11573;51.334;3.244;2023-11-19T10:30:22;14.50;99.90
22813;DHT22;11573;51.334;3.244;2023-11-19T10:33:06;14.60;99.90
22813;DHT22;11573;51.334;3.244;2023-11-19T10:35:35;14.70;99.90
22813;DHT22;11573;51.334;3.244;2023-11-19T10:38:15;14.70;99.90
22813;DHT22;11573;51.334;3.244;2023-11-19T10:40:43;14.50;99.90
22813;DHT22;11573;51.334;3.244;2023-11-19T10:43:10;14.50;99.90
22813;DHT22;11573;51.334;3.244;2023-11-19T10:45:38;14.40;99.90
22813;DHT22;11573;51.334;3.244;2023-11-19T10:48:06;14.30;99.90
22813;DHT22;11573;51.334;3.244;2023-11-19T10:50:37;14.30;99.90
22813;DHT22;11573;51.334;3.244;2023-11-19T10:53:08;14.30;99.90
22813;DHT22;11573;51.334;3.244;2023-11-19T10:55:39;14.40;99.90
22813;DHT22;11573;51.334;3.244;2023-11-19T10:58:08;14.40;99.90
22813;DHT22;11573;51.334;3.244;2023-11-19T11:00:54;14.20;99.90
22813;DHT22;11573;51.334;3.244;2023-11-19T11:03:24;14.20;99.90
22813;DHT22;11573;51.334;3.244;2023-11-19T11:05:53;14.20;99.90
22813;DHT22;11573;51.334;3.244;2023-11-19T11:08:20;14.20;99.90
22813;DHT22;11573;51.334;3.244;2023-11-19T11:10:54;14.30;99.90
22813;DHT22;11573;51.334;3.244;2023-11-19T11:13:25;14.20;99.90
22813;DHT22;11573;51.334;3.244;2023-11-19T11:15:55;13.80;99.90
22813;DHT22;11573;51.334;3.244;2023-11-19T11:18:25;13.50;99.90
22813;DHT22;11573;51.334;3.244;2023-11-19T11:32:35;13.40;99.90
22813;DHT22;11573;51.334;3.244;2023-11-19T11:38:03;13.40;99.90
22813;DHT22;11573;51.334;3.244;2023-11-19T11:40:30;13.50;99.90
22813;DHT22;11573;51.334;3.244;2023-11-19T11:42:58;13.50;99.90
22813;DHT22;11573;51.334;3.244;2023-11-19T11:45:39;13.60;99.90
22813;DHT22;11573;51.334;3.244;2023-11-19T11:50:56;13.70;99.90
22813;DHT22;11573;51.334;3.244;2023-11-19T11:53:24;13.80;99.90
22813;DHT22;11573;51.334;3.244;2023-11-19T11:55:53;13.90;99.90
22813;DHT22;11573;51.334;3.244;2023-11-19T11:58:29;13.90;99.90
22813;DHT22;11573;51.334;3.244;2023-11-19T12:00:58;14.00;99.90
22813;DHT22;11573;51.334;3.244;2023-11-19T12:03:28;13.90;99.90
22813;DHT22;11573;51.334;3.244;2023-11-19T12:05:55;14.00;99.90
22813;DHT22;11573;51.334;3.244;2023-11-19T12:08:28;14.10;99.90
22813;DHT22;11573;51.334;3.244;2023-11-19T12:10:57;14.30;99.90
22813;DHT22;11573;51.334;3.244;2023-11-19T12:13:42;14.40;99.90
22813;DHT22;11573;51.334;3.244;2023-11-19T12:16:10;14.30;99.90
22813;DHT22;11573;51.334;3.244;2023-11-19T12:18:39;14.30;99.90
22813;DHT22;11573;51.334;3.244;2023-11-19T12:21:06;14.10;99.90
22813;DHT22;11573;51.334;3.244;2023-11-19T12:23:44;14.10;99.90
22813;DHT22;11573;51.334;3.244;2023-11-19T12:26:31;14.00;99.90
22813;DHT22;11573;51.334;3.244;2023-11-19T12:28:59;13.90;99.90
22813;DHT22;11573;51.334;3.244;2023-11-19T12:31:26;14.00;99.90
22813;DHT22;11573;51.334;3.244;2023-11-19T12:33:54;14.10;99.90
22813;DHT22;11573;51.334;3.244;2023-11-19T12:36:21;14.20;99.90
22813;DHT22;11573;51.334;3.244;2023-11-19T12:38:48;14.30;99.90
22813;DHT22;11573;51.334;3.244;2023-11-19T12:41:15;14.40;99.90
22813;DHT22;11573;51.334;3.244;2023-11-19T12:43:47;14.40;99.90
22813;DHT22;11573;51.334;3.244;2023-11-19T12:46:20;14.50;99.90
22813;DHT22;11573;51.334;3.244;2023-11-19T12:48:51;14.40;99.90
22813;DHT22;11573;51.334;3.244;2023-11-19T12:51:18;14.40;99.90
22813;DHT22;11573;51.334;3.244;2023-11-19T12:53:52;14.30;99.90
22813;DHT22;11573;51.334;3.244;2023-11-19T12:56:24;14.20;99.90
22813;DHT22;11573;51.334;3.244;2023-11-19T12:58:51;14.20;99.90
22813;DHT22;11573;51.334;3.244;2023-11-19T13:01:19;14.20;99.90
22813;DHT22;11573;51.334;3.244;2023-11-19T13:03:48;14.30;99.90
22813;DHT22;11573;51.334;3.244;2023-11-19T13:06:18;14.30;99.90
22813;DHT22;11573;51.334;3.244;2023-11-19T13:08:49;14.30;99.90
22813;DHT22;11573;51.334;3.244;2023-11-19T13:11:32;14.30;99.90
22813;DHT22;11573;51.334;3.244;2023-11-19T13:14:06;14.20;99.90
22813;DHT22;11573;51.334;3.244;2023-11-19T13:16:38;14.20;99.90
22813;DHT22;11573;51.334;3.244;2023-11-19T13:19:06;14.30;99.90
22813;DHT22;11573;51.334;3.244;2023-11-19T13:21:33;14.40;99.90
22813;DHT22;11573;51.334;3.244;2023-11-19T13:24:00;14.50;99.90
22813;DHT22;11573;51.334;3.244;2023-11-19T13:26:27;14.50;99.90
22813;DHT22;11573;51.334;3.244;2023-11-19T13:28:54;14.40;99.90
22813;DHT22;11573;51.334;3.244;2023-11-19T13:31:21;14.50;99.90
22813;DHT22;11573;51.334;3.244;2023-11-19T13:33:49;14.50;99.90
22813;DHT22;11573;51.334;3.244;2023-11-19T13:36:16;14.50;99.90
22813;DHT22;11573;51.334;3.244;2023-11-19T13:38:43;14.50;99.90
22813;DHT22;11573;51.334;3.244;2023-11-19T13:41:14;14.40;99.90
22813;DHT22;11573;51.334;3.244;2023-11-19T13:43:41;14.30;99.90
22813;DHT22;11573;51.334;3.244;2023-11-19T13:46:08;14.10;99.90
22813;DHT22;11573;51.334;3.244;2023-11-19T13:48:37;14.10;99.90
22813;DHT22;11573;51.334;3.244;2023-11-19T13:51:05;14.20;99.90
22813;DHT22;11573;51.334;3.244;2023-11-19T13:53:32;14.30;99.90
22813;DHT22;11573;51.334;3.244;2023-11-19T13:56:17;14.30;99.90
22813;DHT22;11573;51.334;3.244;2023-11-19T13:58:45;14.20;99.90
22813;DHT22;11573;51.334;3.244;2023-11-19T14:01:12;14.20;99.90
22813;DHT22;11573;51.334;3.244;2023-11-19T14:03:40;14.20;99.90
22813;DHT22;11573;51.334;3.244;2023-11-19T14:06:09;14.10;99.90
22813;DHT22;11573;51.334;3.244;2023-11-19T14:08:36;14.00;99.90
22813;DHT22;11573;51.334;3.244;2023-11-19T14:11:04;14.00;99.90
22813;DHT22;11573;51.334;3.244;2023-11-19T14:13:32;14.00;99.90
22813;DHT22;11573;51.334;3.244;2023-11-19T14:15:59;13.90;99.90
22813;DHT22;11573;51.334;3.244;2023-11-19T14:18:27;13.80;99.90
22813;DHT22;11573;51.334;3.244;2023-11-19T14:20:54;13.60;99.90
22813;DHT22;11573;51.334;3.244;2023-11-19T14:23:21;13.50;99.90
22813;DHT22;11573;51.334;3.244;2023-11-19T14:25:48;13.30;99.90
22813;DHT22;11573;51.334;3.244;2023-11-19T14:28:16;13.10;99.90
22813;DHT22;11573;51.334;3.244;2023-11-19T14:30:43;13.00;99.90
22813;DHT22;11573;51.334;3.244;2023-11-19T14:33:12;12.80;99.90
22813;DHT22;11573;51.334;3.244;2023-11-19T14:35:39;12.70;99.90
22813;DHT22;11573;51.334;3.244;2023-11-19T14:38:06;12.70;99.90
22813;DHT22;11573;51.334;3.244;2023-11-19T14:40:36;12.60;99.90
22813;DHT22;11573;51.334;3.244;2023-11-19T14:43:06;12.60;99.90
22813;DHT22;11573;51.334;3.244;2023-11-19T14:45:37;12.60;99.90
22813;DHT22;11573;51.334;3.244;2023-11-19T14:48:15;12.60;99.90
22813;DHT22;11573;51.334;3.244;2023-11-19T14:50:42;12.60;99.90
22813;DHT22;11573;51.334;3.244;2023-11-19T14:53:11;12.60;99.90
22813;DHT22;11573;51.334;3.244;2023-11-19T14:55:38;12.60;99.90
22813;DHT22;11573;51.334;3.244;2023-11-19T14:58:05;12.60;99.90
22813;DHT22;11573;51.334;3.244;2023-11-19T15:00:37;12.60;99.90
22813;DHT22;11573;51.334;3.244;2023-11-19T15:03:04;12.60;99.90
22813;DHT22;11573;51.334;3.244;2023-11-19T15:05:33;12.60;99.90
22813;DHT22;11573;51.334;3.244;2023-11-19T15:08:01;12.60;99.90
22813;DHT22;11573;51.334;3.244;2023-11-19T15:10:30;12.60;99.90
22813;DHT22;11573;51.334;3.244;2023-11-19T15:12:57;12.60;99.90
22813;DHT22;11573;51.334;3.244;2023-11-19T15:15:24;12.60;99.90
22813;DHT22;11573;51.334;3.244;2023-11-19T15:17:55;12.60;99.90
22813;DHT22;11573;51.334;3.244;2023-11-19T15:20:22;12.60;99.90
22813;DHT22;11573;51.334;3.244;2023-11-19T15:22:49;12.60;99.90
22813;DHT22;11573;51.334;3.244;2023-11-19T15:25:16;12.60;99.90
22813;DHT22;11573;51.334;3.244;2023-11-19T15:27:43;12.60;99.90
22813;DHT22;11573;51.334;3.244;2023-11-19T15:30:11;12.60;99.90
22813;DHT22;11573;51.334;3.244;2023-11-19T15:32:38;12.60;99.90
22813;DHT22;11573;51.334;3.244;2023-11-19T15:35:06;12.60;99.90
22813;DHT22;11573;51.334;3.244;2023-11-19T15:37:40;12.60;99.90
22813;DHT22;11573;51.334;3.244;2023-11-19T15:40:10;12.60;99.90
22813;DHT22;11573;51.334;3.244;2023-11-19T15:42:39;12.60;99.90
22813;DHT22;11573;51.334;3.244;2023-11-19T15:45:07;12.60;99.90
22813;DHT22;11573;51.334;3.244;2023-11-19T15:47:34;12.60;99.90
22813;DHT22;11573;51.334;3.244;2023-11-19T15:50:04;12.60;99.90
22813;DHT22;11573;51.334;3.244;2023-11-19T15:52:31;12.60;99.90
22813;DHT22;11573;51.334;3.244;2023-11-19T15:54:59;12.60;99.90
22813;DHT22;11573;51.334;3.244;2023-11-19T15:57:26;12.60;99.90